sensor_id;sensor_type;location;lat;lon;timestamp;pressure;altitude;pressure_sealevel;temperature
19282;BMP180;9774;52.034;5.342;2023-08-31T00:01:20;100621.00;;;17.90
19282;BMP180;9774;52.034;5.342;2023-08-31T00:03:47;100616.00;;;17.80
19282;BMP180;9774;52.034;5.342;2023-08-31T00:06:14;100612.00;;;17.80
19282;BMP180;9774;52.034;5.342;2023-08-31T00:08:40;100616.00;;;17.80
19282;BMP180;9774;52.034;5.342;2023-08-31T00:11:09;100605.00;;;17.80
19282;BMP180;9774;52.034;5.342;2023-08-31T00:13:37;100616.00;;;17.70
19282;BMP180;9774;52.034;5.342;2023-08-31T00:16:04;100618.00;;;17.70
19282;BMP180;9774;52.034;5.342;2023-08-31T00:18:31;100614.00;;;17.70
19282;BMP180;9774;52.034;5.342;2023-08-31T00:20:58;100613.00;;;17.70
19282;BMP180;9774;52.034;5.342;2023-08-31T00:23:25;100612.00;;;17.70
19282;BMP180;9774;52.034;5.342;2023-08-31T00:25:52;100611.00;;;17.70
19282;BMP180;9774;52.034;5.342;2023-08-31T00:28:19;100617.00;;;17.60
19282;BMP180;9774;52.034;5.342;2023-08-31T00:30:49;100604.00;;;17.60
19282;BMP180;9774;52.034;5.342;2023-08-31T00:33:18;100600.00;;;17.60
19282;BMP180;9774;52.034;5.342;2023-08-31T00:35:45;100594.00;;;17.60
19282;BMP180;9774;52.034;5.342;2023-08-31T00:38:12;100606.00;;;17.60
19282;BMP180;9774;52.034;5.342;2023-08-31T00:40:40;100600.00;;;17.60
19282;BMP180;9774;52.034;5.342;2023-08-31T00:43:10;100596.00;;;17.50
19282;BMP180;9774;52.034;5.342;2023-08-31T00:45:38;100605.00;;;17.50
19282;BMP180;9774;52.034;5.342;2023-08-31T00:48:07;100602.00;;;17.50
19282;BMP180;9774;52.034;5.342;2023-08-31T00:50:35;100604.00;;;17.50
19282;BMP180;9774;52.034;5.342;2023-08-31T00:53:03;100593.00;;;17.50
19282;BMP180;9774;52.034;5.342;2023-08-31T00:55:32;100601.00;;;17.50
19282;BMP180;9774;52.034;5.342;2023-08-31T00:57:59;100609.00;;;17.50
19282;BMP180;9774;52.034;5.342;2023-08-31T01:00:49;100602.00;;;17.40
19282;BMP180;9774;52.034;5.342;2023-08-31T01:03:32;100602.00;;;17.40
19282;BMP180;9774;52.034;5.342;2023-08-31T01:06:12;100604.00;;;17.40
19282;BMP180;9774;52.034;5.342;2023-08-31T01:08:50;100606.00;;;17.50
19282;BMP180;9774;52.034;5.342;2023-08-31T01:11:30;100606.00;;;17.40
19282;BMP180;9774;52.034;5.342;2023-08-31T01:14:09;100613.00;;;17.50
19282;BMP180;9774;52.034;5.342;2023-08-31T01:16:41;100618.00;;;17.50
19282;BMP180;9774;52.034;5.342;2023-08-31T01:19:27;100612.00;;;17.50
19282;BMP180;9774;52.034;5.342;2023-08-31T01:22:02;100607.00;;;17.60
19282;BMP180;9774;52.034;5.342;2023-08-31T01:24:32;100606.00;;;17.60
19282;BMP180;9774;52.034;5.342;2023-08-31T01:26:59;100604.00;;;17.70
19282;BMP180;9774;52.034;5.342;2023-08-31T01:29:26;100609.00;;;17.70
19282;BMP180;9774;52.034;5.342;2023-08-31T01:31:56;100616.00;;;17.70
19282;BMP180;9774;52.034;5.342;2023-08-31T01:34:23;100601.00;;;17.70
19282;BMP180;9774;52.034;5.342;2023-08-31T01:36:58;100606.00;;;17.70
19282;BMP180;9774;52.034;5.342;2023-08-31T01:39:35;100610.00;;;17.70
19282;BMP180;9774;52.034;5.342;2023-08-31T01:42:06;100599.00;;;17.80
19282;BMP180;9774;52.034;5.342;2023-08-31T01:44:35;100587.00;;;17.80
19282;BMP180;9774;52.034;5.342;2023-08-31T01:47:05;100604.00;;;17.80
19282;BMP180;9774;52.034;5.342;2023-08-31T01:49:37;100605.00;;;17.80
19282;BMP180;9774;52.034;5.342;2023-08-31T01:52:05;100597.00;;;17.80
19282;BMP180;9774;52.034;5.342;2023-08-31T01:54:35;100608.00;;;17.90
19282;BMP180;9774;52.034;5.342;2023-08-31T01:57:03;100601.00;;;17.90
19282;BMP180;9774;52.034;5.342;2023-08-31T01:59:32;100604.00;;;17.90
19282;BMP180;9774;52.034;5.342;2023-08-31T02:01:59;100594.00;;;18.00
19282;BMP180;9774;52.034;5.342;2023-08-31T02:04:25;100601.00;;;18.00
19282;BMP180;9774;52.034;5.342;2023-08-31T02:06:53;100599.00;;;18.00
19282;BMP180;9774;52.034;5.342;2023-08-31T02:09:20;100602.00;;;18.00
19282;BMP180;9774;52.034;5.342;2023-08-31T02:11:49;100612.00;;;18.00
19282;BMP180;9774;52.034;5.342;2023-08-31T02:14:16;100609.00;;;18.10
19282;BMP180;9774;52.034;5.342;2023-08-31T02:16:43;100615.00;;;18.10
19282;BMP180;9774;52.034;5.342;2023-08-31T02:19:10;100610.00;;;18.20
19282;BMP180;9774;52.034;5.342;2023-08-31T02:21:38;100614.00;;;18.20
19282;BMP180;9774;52.034;5.342;2023-08-31T02:24:06;100612.00;;;18.20
19282;BMP180;9774;52.034;5.342;2023-08-31T02:26:35;100612.00;;;18.20
19282;BMP180;9774;52.034;5.342;2023-08-31T02:29:05;100619.00;;;18.20
19282;BMP180;9774;52.034;5.342;2023-08-31T02:31:35;100625.00;;;18.20
19282;BMP180;9774;52.034;5.342;2023-08-31T02:34:03;100627.00;;;18.30
19282;BMP180;9774;52.034;5.342;2023-08-31T02:36:30;100626.00;;;18.30
19282;BMP180;9774;52.034;5.342;2023-08-31T02:38:57;100629.00;;;18.30
19282;BMP180;9774;52.034;5.342;2023-08-31T02:41:24;100622.00;;;18.40
19282;BMP180;9774;52.034;5.342;2023-08-31T02:43:51;100621.00;;;18.40
19282;BMP180;9774;52.034;5.342;2023-08-31T02:46:19;100608.00;;;18.40
19282;BMP180;9774;52.034;5.342;2023-08-31T02:48:46;100615.00;;;18.40
19282;BMP180;9774;52.034;5.342;2023-08-31T02:51:14;100613.00;;;18.40
19282;BMP180;9774;52.034;5.342;2023-08-31T02:53:41;100601.00;;;18.40
19282;BMP180;9774;52.034;5.342;2023-08-31T02:56:08;100606.00;;;18.50
19282;BMP180;9774;52.034;5.342;2023-08-31T02:58:35;100608.00;;;18.50
19282;BMP180;9774;52.034;5.342;2023-08-31T03:01:09;100597.00;;;18.40
19282;BMP180;9774;52.034;5.342;2023-08-31T03:03:39;100604.00;;;18.50
19282;BMP180;9774;52.034;5.342;2023-08-31T03:06:07;100602.00;;;18.50
19282;BMP180;9774;52.034;5.342;2023-08-31T03:08:34;100597.00;;;18.50
19282;BMP180;9774;52.034;5.342;2023-08-31T03:11:03;100603.00;;;18.50
19282;BMP180;9774;52.034;5.342;2023-08-31T03:13:31;100605.00;;;18.60
19282;BMP180;9774;52.034;5.342;2023-08-31T03:15:59;100605.00;;;18.60
19282;BMP180;9774;52.034;5.342;2023-08-31T03:18:26;100611.00;;;18.60
19282;BMP180;9774;52.034;5.342;2023-08-31T03:20:55;100587.00;;;18.60
19282;BMP180;9774;52.034;5.342;2023-08-31T03:23:24;100606.00;;;18.60
19282;BMP180;9774;52.034;5.342;2023-08-31T03:25:51;100609.00;;;18.60
19282;BMP180;9774;52.034;5.342;2023-08-31T03:28:20;100610.00;;;18.60
19282;BMP180;9774;52.034;5.342;2023-08-31T03:30:55;100611.00;;;18.60
19282;BMP180;9774;52.034;5.342;2023-08-31T03:33:22;100607.00;;;18.70
19282;BMP180;9774;52.034;5.342;2023-08-31T03:35:49;100615.00;;;18.70
19282;BMP180;9774;52.034;5.342;2023-08-31T03:38:17;100615.00;;;18.70
19282;BMP180;9774;52.034;5.342;2023-08-31T03:40:53;100609.00;;;18.60
19282;BMP180;9774;52.034;5.342;2023-08-31T03:43:21;100615.00;;;18.70
19282;BMP180;9774;52.034;5.342;2023-08-31T03:45:48;100607.00;;;18.70
19282;BMP180;9774;52.034;5.342;2023-08-31T03:48:15;100617.00;;;18.80
19282;BMP180;9774;52.034;5.342;2023-08-31T03:50:42;100612.00;;;18.80
19282;BMP180;9774;52.034;5.342;2023-08-31T03:53:09;100612.00;;;18.80
19282;BMP180;9774;52.034;5.342;2023-08-31T03:55:37;100616.00;;;18.80
19282;BMP180;9774;52.034;5.342;2023-08-31T03:58:04;100612.00;;;18.80
19282;BMP180;9774;52.034;5.342;2023-08-31T04:00:32;100611.00;;;18.80
19282;BMP180;9774;52.034;5.342;2023-08-31T04:02:59;100613.00;;;18.80
19282;BMP180;9774;52.034;5.342;2023-08-31T04:05:26;100613.00;;;18.90
19282;BMP180;9774;52.034;5.342;2023-08-31T04:07:53;100618.00;;;18.90
19282;BMP180;9774;52.034;5.342;2023-08-31T04:10:25;100627.00;;;18.80
19282;BMP180;9774;52.034;5.342;2023-08-31T04:12:53;100622.00;;;18.90
19282;BMP180;9774;52.034;5.342;2023-08-31T04:15:20;100640.00;;;18.90
19282;BMP180;9774;52.034;5.342;2023-08-31T04:17:47;100638.00;;;19.00
19282;BMP180;9774;52.034;5.342;2023-08-31T04:20:15;100650.00;;;19.00
19282;BMP180;9774;52.034;5.342;2023-08-31T04:22:42;100649.00;;;19.00
19282;BMP180;9774;52.034;5.342;2023-08-31T04:25:09;100663.00;;;19.00
19282;BMP180;9774;52.034;5.342;2023-08-31T04:27:36;100661.00;;;19.00
19282;BMP180;9774;52.034;5.342;2023-08-31T04:30:07;100660.00;;;19.00
19282;BMP180;9774;52.034;5.342;2023-08-31T04:32:34;100659.00;;;19.10
19282;BMP180;9774;52.034;5.342;2023-08-31T04:35:03;100658.00;;;19.10
19282;BMP180;9774;52.034;5.342;2023-08-31T04:37:31;100669.00;;;19.10
19282;BMP180;9774;52.034;5.342;2023-08-31T04:39:58;100672.00;;;19.10
19282;BMP180;9774;52.034;5.342;2023-08-31T04:42:25;100670.00;;;19.10
19282;BMP180;9774;52.034;5.342;2023-08-31T04:44:52;100675.00;;;19.10
19282;BMP180;9774;52.034;5.342;2023-08-31T04:47:20;100676.00;;;19.20
19282;BMP180;9774;52.034;5.342;2023-08-31T04:49:47;100680.00;;;19.20
19282;BMP180;9774;52.034;5.342;2023-08-31T04:52:14;100686.00;;;19.20
19282;BMP180;9774;52.034;5.342;2023-08-31T04:54:41;100679.00;;;19.20
19282;BMP180;9774;52.034;5.342;2023-08-31T04:57:08;100696.00;;;19.20
19282;BMP180;9774;52.034;5.342;2023-08-31T04:59:36;100701.00;;;19.20
19282;BMP180;9774;52.034;5.342;2023-08-31T05:02:03;100705.00;;;19.20
19282;BMP180;9774;52.034;5.342;2023-08-31T05:04:31;100708.00;;;19.20
19282;BMP180;9774;52.034;5.342;2023-08-31T05:06:59;100703.00;;;19.20
19282;BMP180;9774;52.034;5.342;2023-08-31T05:09:26;100710.00;;;19.20
19282;BMP180;9774;52.034;5.342;2023-08-31T05:11:58;100717.00;;;19.20
19282;BMP180;9774;52.034;5.342;2023-08-31T05:14:25;100709.00;;;19.20
19282;BMP180;9774;52.034;5.342;2023-08-31T05:16:52;100701.00;;;19.20
19282;BMP180;9774;52.034;5.342;2023-08-31T05:19:19;100706.00;;;19.20
19282;BMP180;9774;52.034;5.342;2023-08-31T05:21:48;100709.00;;;19.10
19282;BMP180;9774;52.034;5.342;2023-08-31T05:24:15;100713.00;;;19.20
19282;BMP180;9774;52.034;5.342;2023-08-31T05:26:41;100712.00;;;19.20
19282;BMP180;9774;52.034;5.342;2023-08-31T05:29:08;100709.00;;;19.20
19282;BMP180;9774;52.034;5.342;2023-08-31T05:31:36;100706.00;;;19.20
19282;BMP180;9774;52.034;5.342;2023-08-31T05:34:03;100710.00;;;19.20
19282;BMP180;9774;52.034;5.342;2023-08-31T05:36:30;100704.00;;;19.20
19282;BMP180;9774;52.034;5.342;2023-08-31T05:38:58;100708.00;;;19.20
19282;BMP180;9774;52.034;5.342;2023-08-31T05:41:25;100719.00;;;19.20
19282;BMP180;9774;52.034;5.342;2023-08-31T05:43:52;100721.00;;;19.20
19282;BMP180;9774;52.034;5.342;2023-08-31T05:46:22;100717.00;;;19.30
19282;BMP180;9774;52.034;5.342;2023-08-31T05:48:49;100720.00;;;19.30
19282;BMP180;9774;52.034;5.342;2023-08-31T05:51:18;100723.00;;;19.30
19282;BMP180;9774;52.034;5.342;2023-08-31T05:53:46;100724.00;;;19.30
19282;BMP180;9774;52.034;5.342;2023-08-31T05:56:14;100719.00;;;19.30
19282;BMP180;9774;52.034;5.342;2023-08-31T05:58:41;100727.00;;;19.40
19282;BMP180;9774;52.034;5.342;2023-08-31T06:01:08;100746.00;;;19.40
19282;BMP180;9774;52.034;5.342;2023-08-31T06:03:35;100741.00;;;19.50
19282;BMP180;9774;52.034;5.342;2023-08-31T06:06:02;100744.00;;;19.50
19282;BMP180;9774;52.034;5.342;2023-08-31T06:08:29;100741.00;;;19.50
19282;BMP180;9774;52.034;5.342;2023-08-31T06:10:56;100745.00;;;19.50
19282;BMP180;9774;52.034;5.342;2023-08-31T06:13:25;100750.00;;;19.50
19282;BMP180;9774;52.034;5.342;2023-08-31T06:15:51;100756.00;;;19.50
19282;BMP180;9774;52.034;5.342;2023-08-31T06:18:21;100760.00;;;19.60
19282;BMP180;9774;52.034;5.342;2023-08-31T06:20:49;100765.00;;;19.50
19282;BMP180;9774;52.034;5.342;2023-08-31T06:23:16;100761.00;;;19.60
19282;BMP180;9774;52.034;5.342;2023-08-31T06:25:43;100769.00;;;19.60
19282;BMP180;9774;52.034;5.342;2023-08-31T06:28:11;100766.00;;;19.60
19282;BMP180;9774;52.034;5.342;2023-08-31T06:30:41;100776.00;;;19.60
19282;BMP180;9774;52.034;5.342;2023-08-31T06:33:12;100771.00;;;19.60
19282;BMP180;9774;52.034;5.342;2023-08-31T06:35:39;100775.00;;;19.60
19282;BMP180;9774;52.034;5.342;2023-08-31T06:38:07;100775.00;;;19.60
19282;BMP180;9774;52.034;5.342;2023-08-31T06:40:34;100769.00;;;19.70
19282;BMP180;9774;52.034;5.342;2023-08-31T06:43:01;100768.00;;;19.60
19282;BMP180;9774;52.034;5.342;2023-08-31T06:45:29;100773.00;;;19.70
19282;BMP180;9774;52.034;5.342;2023-08-31T06:47:57;100778.00;;;19.70
19282;BMP180;9774;52.034;5.342;2023-08-31T06:50:25;100771.00;;;19.70
19282;BMP180;9774;52.034;5.342;2023-08-31T06:52:52;100775.00;;;19.70
19282;BMP180;9774;52.034;5.342;2023-08-31T06:55:19;100773.00;;;19.70
19282;BMP180;9774;52.034;5.342;2023-08-31T06:57:46;100783.00;;;19.70
19282;BMP180;9774;52.034;5.342;2023-08-31T07:00:13;100781.00;;;19.70
19282;BMP180;9774;52.034;5.342;2023-08-31T07:02:41;100789.00;;;19.70
19282;BMP180;9774;52.034;5.342;2023-08-31T07:05:11;100795.00;;;19.80
19282;BMP180;9774;52.034;5.342;2023-08-31T07:07:38;100791.00;;;19.80
19282;BMP180;9774;52.034;5.342;2023-08-31T07:10:06;100789.00;;;19.80
19282;BMP180;9774;52.034;5.342;2023-08-31T07:12:33;100791.00;;;19.80
19282;BMP180;9774;52.034;5.342;2023-08-31T07:15:00;100798.00;;;19.80
19282;BMP180;9774;52.034;5.342;2023-08-31T07:17:28;100800.00;;;19.80
19282;BMP180;9774;52.034;5.342;2023-08-31T07:19:54;100812.00;;;19.80
19282;BMP180;9774;52.034;5.342;2023-08-31T07:22:23;100809.00;;;19.80
19282;BMP180;9774;52.034;5.342;2023-08-31T07:24:50;100808.00;;;19.80
19282;BMP180;9774;52.034;5.342;2023-08-31T07:27:17;100813.00;;;19.80
19282;BMP180;9774;52.034;5.342;2023-08-31T07:29:44;100813.00;;;19.90
19282;BMP180;9774;52.034;5.342;2023-08-31T07:32:11;100816.00;;;19.90
19282;BMP180;9774;52.034;5.342;2023-08-31T07:34:38;100805.00;;;19.90
19282;BMP180;9774;52.034;5.342;2023-08-31T07:37:05;100807.00;;;19.90
19282;BMP180;9774;52.034;5.342;2023-08-31T07:39:33;100803.00;;;20.00
19282;BMP180;9774;52.034;5.342;2023-08-31T07:42:00;100812.00;;;20.00
19282;BMP180;9774;52.034;5.342;2023-08-31T07:44:27;100823.00;;;20.00
19282;BMP180;9774;52.034;5.342;2023-08-31T07:46:54;100811.00;;;20.00
19282;BMP180;9774;52.034;5.342;2023-08-31T07:49:21;100821.00;;;20.10
19282;BMP180;9774;52.034;5.342;2023-08-31T07:51:48;100810.00;;;20.10
19282;BMP180;9774;52.034;5.342;2023-08-31T07:54:20;100817.00;;;20.10
19282;BMP180;9774;52.034;5.342;2023-08-31T07:56:48;100820.00;;;20.30
19282;BMP180;9774;52.034;5.342;2023-08-31T07:59:16;100819.00;;;20.30
19282;BMP180;9774;52.034;5.342;2023-08-31T08:01:43;100825.00;;;20.40
19282;BMP180;9774;52.034;5.342;2023-08-31T08:04:11;100830.00;;;20.40
19282;BMP180;9774;52.034;5.342;2023-08-31T08:06:38;100824.00;;;20.50
19282;BMP180;9774;52.034;5.342;2023-08-31T08:09:05;100823.00;;;20.50
19282;BMP180;9774;52.034;5.342;2023-08-31T08:11:34;100825.00;;;20.50
19282;BMP180;9774;52.034;5.342;2023-08-31T08:14:02;100823.00;;;20.60
19282;BMP180;9774;52.034;5.342;2023-08-31T08:16:30;100831.00;;;20.70
19282;BMP180;9774;52.034;5.342;2023-08-31T08:18:57;100823.00;;;20.70
19282;BMP180;9774;52.034;5.342;2023-08-31T08:21:24;100820.00;;;20.80
19282;BMP180;9774;52.034;5.342;2023-08-31T08:23:50;100828.00;;;20.90
19282;BMP180;9774;52.034;5.342;2023-08-31T08:26:18;100834.00;;;21.00
19282;BMP180;9774;52.034;5.342;2023-08-31T08:28:45;100831.00;;;21.10
19282;BMP180;9774;52.034;5.342;2023-08-31T08:31:13;100836.00;;;21.20
19282;BMP180;9774;52.034;5.342;2023-08-31T08:33:40;100846.00;;;21.30
19282;BMP180;9774;52.034;5.342;2023-08-31T08:36:07;100835.00;;;21.40
19282;BMP180;9774;52.034;5.342;2023-08-31T08:38:34;100839.00;;;21.50
19282;BMP180;9774;52.034;5.342;2023-08-31T08:41:04;100844.00;;;21.50
19282;BMP180;9774;52.034;5.342;2023-08-31T08:43:34;100845.00;;;21.70
19282;BMP180;9774;52.034;5.342;2023-08-31T08:46:05;100844.00;;;21.70
19282;BMP180;9774;52.034;5.342;2023-08-31T08:48:36;100849.00;;;21.90
19282;BMP180;9774;52.034;5.342;2023-08-31T08:51:05;100846.00;;;22.00
19282;BMP180;9774;52.034;5.342;2023-08-31T08:53:33;100852.00;;;22.10
19282;BMP180;9774;52.034;5.342;2023-08-31T08:56:01;100844.00;;;22.30
19282;BMP180;9774;52.034;5.342;2023-08-31T08:58:28;100833.00;;;22.40
19282;BMP180;9774;52.034;5.342;2023-08-31T09:00:56;100850.00;;;22.50
19282;BMP180;9774;52.034;5.342;2023-08-31T09:03:23;100845.00;;;22.60
19282;BMP180;9774;52.034;5.342;2023-08-31T09:05:51;100845.00;;;22.60
19282;BMP180;9774;52.034;5.342;2023-08-31T09:08:26;100844.00;;;22.70
19282;BMP180;9774;52.034;5.342;2023-08-31T09:10:56;100849.00;;;22.80
19282;BMP180;9774;52.034;5.342;2023-08-31T09:13:27;100839.00;;;22.80
19282;BMP180;9774;52.034;5.342;2023-08-31T09:15:55;100846.00;;;22.90
19282;BMP180;9774;52.034;5.342;2023-08-31T09:18:28;100847.00;;;22.90
19282;BMP180;9774;52.034;5.342;2023-08-31T09:20:57;100856.00;;;22.90
19282;BMP180;9774;52.034;5.342;2023-08-31T09:23:25;100851.00;;;22.90
19282;BMP180;9774;52.034;5.342;2023-08-31T09:25:53;100857.00;;;23.00
19282;BMP180;9774;52.034;5.342;2023-08-31T09:28:23;100852.00;;;23.00
19282;BMP180;9774;52.034;5.342;2023-08-31T09:30:52;100851.00;;;23.10
19282;BMP180;9774;52.034;5.342;2023-08-31T09:33:20;100849.00;;;23.20
19282;BMP180;9774;52.034;5.342;2023-08-31T09:35:52;100839.00;;;23.30
19282;BMP180;9774;52.034;5.342;2023-08-31T09:38:20;100861.00;;;23.40
19282;BMP180;9774;52.034;5.342;2023-08-31T09:40:48;100851.00;;;23.50
19282;BMP180;9774;52.034;5.342;2023-08-31T09:43:19;100856.00;;;23.50
19282;BMP180;9774;52.034;5.342;2023-08-31T09:45:48;100858.00;;;23.60
19282;BMP180;9774;52.034;5.342;2023-08-31T09:48:19;100856.00;;;23.60
19282;BMP180;9774;52.034;5.342;2023-08-31T09:50:47;100851.00;;;23.70
19282;BMP180;9774;52.034;5.342;2023-08-31T09:53:16;100851.00;;;23.80
19282;BMP180;9774;52.034;5.342;2023-08-31T09:55:47;100857.00;;;23.80
19282;BMP180;9774;52.034;5.342;2023-08-31T09:58:18;100861.00;;;23.80
19282;BMP180;9774;52.034;5.342;2023-08-31T10:00:48;100862.00;;;23.90
19282;BMP180;9774;52.034;5.342;2023-08-31T10:03:16;100855.00;;;24.00
19282;BMP180;9774;52.034;5.342;2023-08-31T10:05:44;100864.00;;;24.10
19282;BMP180;9774;52.034;5.342;2023-08-31T10:08:12;100856.00;;;24.10
19282;BMP180;9774;52.034;5.342;2023-08-31T10:10:40;100864.00;;;24.20
19282;BMP180;9774;52.034;5.342;2023-08-31T10:13:11;100862.00;;;24.30
19282;BMP180;9774;52.034;5.342;2023-08-31T10:15:38;100865.00;;;24.40
19282;BMP180;9774;52.034;5.342;2023-08-31T10:18:07;100871.00;;;24.40
19282;BMP180;9774;52.034;5.342;2023-08-31T10:20:34;100857.00;;;24.40
19282;BMP180;9774;52.034;5.342;2023-08-31T10:23:04;100865.00;;;24.40
19282;BMP180;9774;52.034;5.342;2023-08-31T10:26:04;100864.00;;;24.40
19282;BMP180;9774;52.034;5.342;2023-08-31T10:28:42;100875.00;;;24.50
19282;BMP180;9774;52.034;5.342;2023-08-31T10:31:15;100864.00;;;24.60
19282;BMP180;9774;52.034;5.342;2023-08-31T10:33:44;100867.00;;;24.70
19282;BMP180;9774;52.034;5.342;2023-08-31T10:36:14;100868.00;;;24.70
19282;BMP180;9774;52.034;5.342;2023-08-31T10:38:45;100870.00;;;24.70
19282;BMP180;9774;52.034;5.342;2023-08-31T10:41:21;100873.00;;;24.60
19282;BMP180;9774;52.034;5.342;2023-08-31T10:43:52;100872.00;;;24.70
19282;BMP180;9774;52.034;5.342;2023-08-31T10:46:31;100871.00;;;24.70
19282;BMP180;9774;52.034;5.342;2023-08-31T10:49:00;100869.00;;;24.90
19282;BMP180;9774;52.034;5.342;2023-08-31T10:51:30;100863.00;;;24.90
19282;BMP180;9774;52.034;5.342;2023-08-31T10:54:09;100871.00;;;24.90
19282;BMP180;9774;52.034;5.342;2023-08-31T10:57:02;100863.00;;;24.90
19282;BMP180;9774;52.034;5.342;2023-08-31T10:59:48;100864.00;;;25.00
19282;BMP180;9774;52.034;5.342;2023-08-31T11:02:32;100866.00;;;25.00
19282;BMP180;9774;52.034;5.342;2023-08-31T11:05:08;100858.00;;;25.10
19282;BMP180;9774;52.034;5.342;2023-08-31T11:07:36;100866.00;;;25.20
19282;BMP180;9774;52.034;5.342;2023-08-31T11:10:13;100867.00;;;25.10
19282;BMP180;9774;52.034;5.342;2023-08-31T11:12:42;100870.00;;;25.30
19282;BMP180;9774;52.034;5.342;2023-08-31T11:15:13;100870.00;;;25.30
19282;BMP180;9774;52.034;5.342;2023-08-31T11:17:41;100871.00;;;25.40
19282;BMP180;9774;52.034;5.342;2023-08-31T11:20:13;100873.00;;;25.30
19282;BMP180;9774;52.034;5.342;2023-08-31T11:22:42;100876.00;;;25.40
19282;BMP180;9774;52.034;5.342;2023-08-31T11:25:13;100888.00;;;25.30
19282;BMP180;9774;52.034;5.342;2023-08-31T11:27:40;100883.00;;;25.30
19282;BMP180;9774;52.034;5.342;2023-08-31T11:30:16;100876.00;;;25.30
19282;BMP180;9774;52.034;5.342;2023-08-31T11:32:47;100868.00;;;25.30
19282;BMP180;9774;52.034;5.342;2023-08-31T11:35:15;100883.00;;;25.30
19282;BMP180;9774;52.034;5.342;2023-08-31T11:37:44;100881.00;;;25.30
19282;BMP180;9774;52.034;5.342;2023-08-31T11:40:13;100878.00;;;25.30
19282;BMP180;9774;52.034;5.342;2023-08-31T11:42:41;100881.00;;;25.40
19282;BMP180;9774;52.034;5.342;2023-08-31T11:45:10;100881.00;;;25.40
19282;BMP180;9774;52.034;5.342;2023-08-31T11:47:42;100874.00;;;25.40
19282;BMP180;9774;52.034;5.342;2023-08-31T11:50:11;100882.00;;;25.50
19282;BMP180;9774;52.034;5.342;2023-08-31T11:52:39;100887.00;;;25.60
19282;BMP180;9774;52.034;5.342;2023-08-31T11:55:11;100883.00;;;25.50
19282;BMP180;9774;52.034;5.342;2023-08-31T11:57:38;100879.00;;;25.60
19282;BMP180;9774;52.034;5.342;2023-08-31T12:00:07;100880.00;;;25.60
19282;BMP180;9774;52.034;5.342;2023-08-31T12:02:36;100887.00;;;25.60
19282;BMP180;9774;52.034;5.342;2023-08-31T12:05:06;100887.00;;;25.60
19282;BMP180;9774;52.034;5.342;2023-08-31T12:07:40;100892.00;;;25.60
19282;BMP180;9774;52.034;5.342;2023-08-31T12:10:08;100892.00;;;25.70
19282;BMP180;9774;52.034;5.342;2023-08-31T12:12:36;100884.00;;;25.70
19282;BMP180;9774;52.034;5.342;2023-08-31T12:15:05;100895.00;;;25.60
19282;BMP180;9774;52.034;5.342;2023-08-31T12:17:37;100897.00;;;25.60
19282;BMP180;9774;52.034;5.342;2023-08-31T12:20:07;100893.00;;;25.60
19282;BMP180;9774;52.034;5.342;2023-08-31T12:22:35;100893.00;;;25.60
19282;BMP180;9774;52.034;5.342;2023-08-31T12:25:03;100891.00;;;25.60
19282;BMP180;9774;52.034;5.342;2023-08-31T12:27:31;100904.00;;;25.60
19282;BMP180;9774;52.034;5.342;2023-08-31T12:29:58;100894.00;;;25.60
19282;BMP180;9774;52.034;5.342;2023-08-31T12:32:25;100893.00;;;25.70
19282;BMP180;9774;52.034;5.342;2023-08-31T12:34:52;100904.00;;;25.80
19282;BMP180;9774;52.034;5.342;2023-08-31T12:37:22;100895.00;;;25.70
19282;BMP180;9774;52.034;5.342;2023-08-31T12:39:49;100894.00;;;25.80
19282;BMP180;9774;52.034;5.342;2023-08-31T12:42:17;100900.00;;;25.80
19282;BMP180;9774;52.034;5.342;2023-08-31T12:44:44;100900.00;;;25.80
19282;BMP180;9774;52.034;5.342;2023-08-31T12:47:11;100904.00;;;25.80
19282;BMP180;9774;52.034;5.342;2023-08-31T12:49:38;100910.00;;;25.80
19282;BMP180;9774;52.034;5.342;2023-08-31T12:52:06;100906.00;;;25.80
19282;BMP180;9774;52.034;5.342;2023-08-31T12:54:34;100899.00;;;25.80
19282;BMP180;9774;52.034;5.342;2023-08-31T12:57:01;100904.00;;;25.90
19282;BMP180;9774;52.034;5.342;2023-08-31T12:59:28;100899.00;;;25.90
19282;BMP180;9774;52.034;5.342;2023-08-31T13:01:55;100910.00;;;25.90
19282;BMP180;9774;52.034;5.342;2023-08-31T13:04:23;100913.00;;;25.90
19282;BMP180;9774;52.034;5.342;2023-08-31T13:06:50;100903.00;;;25.90
19282;BMP180;9774;52.034;5.342;2023-08-31T13:09:17;100911.00;;;25.90
19282;BMP180;9774;52.034;5.342;2023-08-31T13:11:46;100910.00;;;25.90
19282;BMP180;9774;52.034;5.342;2023-08-31T13:14:13;100905.00;;;26.00
19282;BMP180;9774;52.034;5.342;2023-08-31T13:16:40;100908.00;;;26.00
19282;BMP180;9774;52.034;5.342;2023-08-31T13:19:08;100905.00;;;26.00
19282;BMP180;9774;52.034;5.342;2023-08-31T13:21:35;100908.00;;;26.00
19282;BMP180;9774;52.034;5.342;2023-08-31T13:24:03;100916.00;;;26.00
19282;BMP180;9774;52.034;5.342;2023-08-31T13:26:30;100905.00;;;26.10
19282;BMP180;9774;52.034;5.342;2023-08-31T13:28:59;100908.00;;;26.00
19282;BMP180;9774;52.034;5.342;2023-08-31T13:31:26;100904.00;;;26.10
19282;BMP180;9774;52.034;5.342;2023-08-31T13:33:54;100911.00;;;26.10
19282;BMP180;9774;52.034;5.342;2023-08-31T13:36:21;100917.00;;;26.10
19282;BMP180;9774;52.034;5.342;2023-08-31T13:38:48;100908.00;;;26.10
19282;BMP180;9774;52.034;5.342;2023-08-31T13:41:15;100912.00;;;26.20
19282;BMP180;9774;52.034;5.342;2023-08-31T13:43:43;100915.00;;;26.30
19282;BMP180;9774;52.034;5.342;2023-08-31T13:46:11;100915.00;;;26.60
19282;BMP180;9774;52.034;5.342;2023-08-31T13:48:38;100928.00;;;26.90
19282;BMP180;9774;52.034;5.342;2023-08-31T13:51:05;100923.00;;;27.20
19282;BMP180;9774;52.034;5.342;2023-08-31T13:53:32;100918.00;;;27.50
19282;BMP180;9774;52.034;5.342;2023-08-31T13:56:04;100921.00;;;27.60
19282;BMP180;9774;52.034;5.342;2023-08-31T13:58:31;100925.00;;;27.80
19282;BMP180;9774;52.034;5.342;2023-08-31T14:01:00;100922.00;;;27.80
19282;BMP180;9774;52.034;5.342;2023-08-31T14:03:30;100925.00;;;27.70
19282;BMP180;9774;52.034;5.342;2023-08-31T14:05:57;100922.00;;;27.60
19282;BMP180;9774;52.034;5.342;2023-08-31T14:08:24;100927.00;;;27.50
19282;BMP180;9774;52.034;5.342;2023-08-31T14:10:53;100922.00;;;27.50
19282;BMP180;9774;52.034;5.342;2023-08-31T14:13:20;100927.00;;;27.60
19282;BMP180;9774;52.034;5.342;2023-08-31T14:15:47;100917.00;;;27.70
19282;BMP180;9774;52.034;5.342;2023-08-31T14:18:14;100926.00;;;27.80